createdAt,value
2022-12-19T00:01:35.361Z,41.65
2022-12-19T00:04:08.201Z,45.35
2022-12-19T00:06:35.847Z,37.20
2022-12-19T00:09:02.560Z,39.95
2022-12-19T00:11:29.629Z,42.60
2022-12-19T00:13:56.828Z,40.85
2022-12-19T00:16:25.594Z,45.95
2022-12-19T00:18:55.260Z,38.67
2022-12-19T00:21:24.165Z,41.80
2022-12-19T00:23:53.375Z,40.97
2022-12-19T00:26:22.783Z,41.00
2022-12-19T00:28:51.876Z,43.28
2022-12-19T00:31:19.793Z,42.08
2022-12-19T00:33:47.541Z,43.70
2022-12-19T00:36:22.999Z,41.97
2022-12-19T00:38:51.561Z,44.72
2022-12-19T00:41:24.932Z,42.67
2022-12-19T00:44:05.512Z,39.03
2022-12-19T00:46:34.659Z,42.08
2022-12-19T00:49:01.472Z,39.22
2022-12-19T00:51:30.272Z,42.75
2022-12-19T00:53:57.513Z,41.80
2022-12-19T00:56:27.593Z,38.22
2022-12-19T00:58:54.732Z,40.20
2022-12-19T01:01:27.307Z,36.25
2022-12-19T01:04:26.558Z,40.97
2022-12-19T01:06:41.166Z,38.33
2022-12-19T01:09:09.663Z,44.53
2022-12-19T01:11:54.726Z,37.55
2022-12-19T01:14:23.273Z,39.00
2022-12-19T01:16:50.976Z,42.92
2022-12-19T01:19:17.731Z,37.50
2022-12-19T01:21:44.404Z,41.10
2022-12-19T01:24:11.516Z,40.30
2022-12-19T01:26:38.299Z,43.05
2022-12-19T01:29:05.386Z,36.97
2022-12-19T01:31:33.620Z,39.13
2022-12-19T01:34:01.389Z,39.00
2022-12-19T01:36:28.711Z,43.38
2022-12-19T01:38:58.694Z,41.65
2022-12-19T01:41:25.629Z,36.08
2022-12-19T01:44:10.527Z,39.05
2022-12-19T01:46:38.769Z,43.60
2022-12-19T01:49:06.640Z,40.50
2022-12-19T01:51:41.680Z,39.58
2022-12-19T01:54:10.194Z,43.73
2022-12-19T01:56:40.226Z,39.10
2022-12-19T01:59:17.219Z,43.47
2022-12-19T02:01:51.231Z,40.50
2022-12-19T02:04:19.188Z,39.28
2022-12-19T02:06:46.038Z,42.67
2022-12-19T02:09:12.763Z,37.80
2022-12-19T02:11:39.430Z,38.05
2022-12-19T02:14:06.137Z,40.50
2022-12-19T02:16:54.013Z,40.75
2022-12-19T02:19:26.664Z,37.85
2022-12-19T02:21:58.483Z,35.65
2022-12-19T02:24:48.348Z,39.30
2022-12-19T02:28:06.073Z,39.42
2022-12-19T02:30:57.671Z,39.53
2022-12-19T02:33:37.805Z,40.67
2022-12-19T02:36:11.642Z,41.55
2022-12-19T02:39:03.676Z,36.95
2022-12-19T02:41:45.365Z,40.38
2022-12-19T02:44:17.561Z,42.90
2022-12-19T02:46:44.242Z,38.93
2022-12-19T02:49:12.157Z,39.55
2022-12-19T02:51:43.812Z,39.77
2022-12-19T02:54:10.532Z,44.95
2022-12-19T02:56:40.645Z,43.35
2022-12-19T02:59:13.370Z,43.90
2022-12-19T03:01:58.921Z,44.03
2022-12-19T03:04:34.827Z,46.63
2022-12-19T03:07:06.334Z,39.78
2022-12-19T03:09:45.775Z,41.35
2022-12-19T03:12:17.658Z,40.60
2022-12-19T03:14:44.897Z,40.28
2022-12-19T03:17:11.600Z,39.95
2022-12-19T03:19:39.505Z,42.95
2022-12-19T03:22:07.259Z,45.05
2022-12-19T03:24:33.960Z,42.75
2022-12-19T03:27:08.333Z,44.00
2022-12-19T03:29:54.261Z,42.80
2022-12-19T03:32:22.328Z,41.95
2022-12-19T03:34:58.121Z,40.97
2022-12-19T03:37:27.952Z,42.47
2022-12-19T03:39:56.023Z,40.25
2022-12-19T03:42:41.875Z,40.22
2022-12-19T03:45:08.617Z,40.25
2022-12-19T03:47:39.712Z,40.38
2022-12-19T03:50:06.859Z,42.03
2022-12-19T03:52:56.853Z,43.00
2022-12-19T03:55:31.328Z,42.38
2022-12-19T03:58:05.057Z,42.13
2022-12-19T04:00:31.731Z,42.08
2022-12-19T04:02:58.417Z,43.47
2022-12-19T04:05:26.735Z,42.10
2022-12-19T04:07:55.753Z,41.03
2022-12-19T04:10:24.219Z,43.28
2022-12-19T04:13:03.413Z,46.15
2022-12-19T04:15:40.298Z,47.53
2022-12-19T04:18:07.027Z,42.05
2022-12-19T04:20:34.573Z,45.00
2022-12-19T04:23:08.241Z,42.33
2022-12-19T04:25:39.225Z,40.20
2022-12-19T04:28:08.265Z,41.85
2022-12-19T04:30:36.798Z,40.83
2022-12-19T04:33:03.946Z,41.70
2022-12-19T04:35:30.636Z,40.22
2022-12-19T04:37:57.318Z,42.78
2022-12-19T04:40:23.982Z,46.78
2022-12-19T04:42:50.687Z,41.33
2022-12-19T04:45:17.367Z,44.17
2022-12-19T04:47:44.052Z,43.42
2022-12-19T04:50:10.950Z,50.67
2022-12-19T04:52:37.688Z,45.83
2022-12-19T04:55:04.713Z,42.78
2022-12-19T04:57:31.878Z,45.08
2022-12-19T04:59:58.768Z,43.30
2022-12-19T05:02:25.781Z,42.05
2022-12-19T05:04:52.632Z,44.78
2022-12-19T05:07:19.301Z,41.97
2022-12-19T05:09:46.168Z,40.80
2022-12-19T05:12:12.936Z,42.03
2022-12-19T05:14:39.613Z,42.38
2022-12-19T05:17:06.740Z,44.42
2022-12-19T05:19:33.425Z,43.33
2022-12-19T05:22:00.118Z,43.30
2022-12-19T05:24:27.718Z,43.33
2022-12-19T05:26:54.547Z,38.78
2022-12-19T05:29:21.490Z,44.85
2022-12-19T05:31:48.194Z,37.85
2022-12-19T05:34:15.110Z,38.00
2022-12-19T05:36:41.998Z,39.55
2022-12-19T05:39:08.764Z,38.58
2022-12-19T05:41:35.484Z,35.78
2022-12-19T05:44:03.189Z,41.83
2022-12-19T05:46:29.877Z,42.53
2022-12-19T05:48:56.737Z,39.47
2022-12-19T05:51:23.968Z,39.83
2022-12-19T05:53:50.868Z,39.35
2022-12-19T05:56:26.273Z,38.22
2022-12-19T05:58:53.194Z,52.67
2022-12-19T06:01:22.373Z,51.58
2022-12-19T06:03:49.365Z,49.30
2022-12-19T06:06:21.304Z,45.55
2022-12-19T06:08:48.024Z,42.47
2022-12-19T06:11:18.522Z,40.15
2022-12-19T06:13:45.257Z,43.17
2022-12-19T06:16:17.736Z,41.40
2022-12-19T06:18:45.677Z,42.03
2022-12-19T06:21:17.662Z,38.88
2022-12-19T06:23:44.509Z,40.17
2022-12-19T06:26:18.349Z,40.80
2022-12-19T06:28:45.895Z,40.65
2022-12-19T06:31:13.093Z,39.55
2022-12-19T06:33:39.905Z,41.28
2022-12-19T06:36:27.112Z,42.03
2022-12-19T06:38:54.592Z,39.03
2022-12-19T06:41:40.173Z,45.22
2022-12-19T06:44:09.113Z,43.15
2022-12-19T06:46:36.757Z,42.15
2022-12-19T06:49:03.765Z,39.53
2022-12-19T06:51:30.827Z,40.17
2022-12-19T06:53:57.587Z,39.50
2022-12-19T06:56:24.834Z,40.60
2022-12-19T06:58:51.703Z,41.08
2022-12-19T07:01:22.485Z,40.38
2022-12-19T07:03:49.243Z,38.35
2022-12-19T07:06:16.044Z,40.30
2022-12-19T07:08:42.807Z,42.53
2022-12-19T07:11:09.492Z,39.47
2022-12-19T07:13:36.191Z,42.63
2022-12-19T07:16:03.639Z,41.17
2022-12-19T07:18:31.491Z,39.22
2022-12-19T07:20:58.244Z,39.03
2022-12-19T07:23:24.947Z,38.78
2022-12-19T07:25:51.859Z,39.53
2022-12-19T07:28:18.602Z,35.63
2022-12-19T07:30:45.507Z,35.95
2022-12-19T07:33:15.622Z,40.70
2022-12-19T07:35:45.098Z,35.55
2022-12-19T07:38:12.116Z,34.42
2022-12-19T07:40:38.803Z,40.70
2022-12-19T07:43:06.617Z,36.30
2022-12-19T07:45:34.323Z,39.47
2022-12-19T07:48:01.982Z,38.97
2022-12-19T07:50:29.708Z,40.05
2022-12-19T07:52:57.638Z,35.80
2022-12-19T07:55:27.795Z,37.17
2022-12-19T07:57:55.708Z,37.67
2022-12-19T08:00:23.088Z,38.10
2022-12-19T08:02:49.867Z,33.92
2022-12-19T08:05:16.808Z,37.00
2022-12-19T08:07:43.482Z,38.88
2022-12-19T08:10:12.598Z,38.28
2022-12-19T08:12:39.570Z,37.05
2022-12-19T08:15:07.486Z,39.65
2022-12-19T08:17:35.311Z,39.67
2022-12-19T08:20:02.192Z,38.97
2022-12-19T08:22:30.349Z,33.40
2022-12-19T08:24:57.834Z,36.00
2022-12-19T08:27:24.681Z,35.15
2022-12-19T08:29:51.418Z,31.90
2022-12-19T08:32:21.223Z,35.67
2022-12-19T08:34:49.993Z,36.00
2022-12-19T08:37:17.471Z,35.65
2022-12-19T08:39:44.809Z,36.50
2022-12-19T08:42:14.858Z,32.63
2022-12-19T08:44:41.715Z,32.92
2022-12-19T08:47:09.726Z,34.63
2022-12-19T08:49:36.437Z,31.73
2022-12-19T08:52:05.602Z,31.98
2022-12-19T08:54:32.310Z,33.70
2022-12-19T08:56:59.143Z,34.88
2022-12-19T08:59:30.811Z,29.38
2022-12-19T09:01:59.415Z,30.75
2022-12-19T09:05:10.790Z,35.38
2022-12-19T09:07:23.181Z,32.63
2022-12-19T09:09:51.093Z,33.38
2022-12-19T09:12:24.747Z,32.20
2022-12-19T09:15:12.449Z,32.60
2022-12-19T09:17:39.898Z,36.47
2022-12-19T09:20:51.611Z,34.78
2022-12-19T09:23:26.778Z,31.13
2022-12-19T09:25:57.784Z,28.35
2022-12-19T09:28:40.833Z,31.33
2022-12-19T09:31:12.140Z,30.55
2022-12-19T09:33:43.447Z,31.80
2022-12-19T09:36:18.895Z,28.08
2022-12-19T09:38:45.790Z,34.70
2022-12-19T09:41:27.530Z,31.20
2022-12-19T09:44:15.732Z,26.45
2022-12-19T09:46:51.487Z,29.20
2022-12-19T09:49:23.962Z,28.40
2022-12-19T09:52:30.222Z,27.67
2022-12-19T09:55:17.417Z,33.75
2022-12-19T09:57:50.180Z,28.45
2022-12-19T10:00:21.556Z,31.27
2022-12-19T10:03:14.777Z,27.52
2022-12-19T10:07:11.013Z,30.58
2022-12-19T10:08:53.781Z,30.52
2022-12-19T10:12:44.932Z,28.35
2022-12-19T10:14:26.506Z,25.52
2022-12-19T10:17:24.799Z,26.92
2022-12-19T10:20:17.158Z,27.95
2022-12-19T10:23:02.349Z,26.48
2022-12-19T10:25:29.402Z,24.88
2022-12-19T10:28:16.991Z,26.95
2022-12-19T10:30:49.760Z,24.83
2022-12-19T10:33:20.299Z,25.00
2022-12-19T10:35:49.488Z,22.85
2022-12-19T10:38:22.797Z,24.88
2022-12-19T10:40:54.230Z,23.52
2022-12-19T10:43:44.401Z,24.65
2022-12-19T10:46:16.428Z,25.80
2022-12-19T10:48:43.202Z,26.88
2022-12-19T10:51:14.178Z,26.23
2022-12-19T10:53:41.012Z,26.35
2022-12-19T10:56:21.916Z,25.55
2022-12-19T10:58:52.129Z,26.42
2022-12-19T11:01:27.585Z,26.73
2022-12-19T11:04:28.687Z,25.17
2022-12-19T11:07:19.640Z,28.77
2022-12-19T11:09:50.652Z,25.85
2022-12-19T11:15:27.485Z,26.30
2022-12-19T11:19:19.803Z,31.98
2022-12-19T11:26:19.645Z,24.13
2022-12-19T11:28:19.152Z,25.15
2022-12-19T11:29:46.627Z,22.23
2022-12-19T11:30:09.322Z,25.48
2022-12-19T11:32:41.456Z,21.53
2022-12-19T11:35:25.288Z,26.80
2022-12-19T11:38:06.841Z,25.08
2022-12-19T11:40:49.174Z,22.85
2022-12-19T11:43:49.554Z,24.00
2022-12-19T11:46:22.048Z,23.08
2022-12-19T11:49:27.819Z,20.80
2022-12-19T11:53:02.404Z,21.75
2022-12-19T11:55:16.085Z,21.02
2022-12-19T11:57:42.919Z,22.83
2022-12-19T12:00:27.748Z,24.33
2022-12-19T12:03:09.633Z,23.60
2022-12-19T12:05:49.891Z,22.90
2022-12-19T12:09:22.968Z,24.95
2022-12-19T12:18:03.075Z,24.35
2022-12-19T12:23:35.281Z,26.05
2022-12-19T12:29:54.680Z,20.73
2022-12-19T12:31:11.208Z,24.20
2022-12-19T12:31:15.662Z,23.35
2022-12-19T12:31:53.472Z,27.80
2022-12-19T12:32:05.787Z,23.45
2022-12-19T12:35:33.128Z,19.85
2022-12-19T12:39:18.036Z,19.15
2022-12-19T12:42:05.160Z,18.77
2022-12-19T12:44:45.567Z,18.23
2022-12-19T12:47:30.595Z,20.45
2022-12-19T12:50:05.302Z,21.95
2022-12-19T12:52:41.328Z,23.00
2022-12-19T12:55:26.759Z,21.17
2022-12-19T12:57:56.687Z,20.58
2022-12-19T13:00:32.115Z,23.05
2022-12-19T13:03:12.303Z,21.85
2022-12-19T13:05:55.870Z,22.33
2022-12-19T13:08:41.219Z,27.08
2022-12-19T13:11:36.926Z,20.60
2022-12-19T13:14:06.977Z,20.98
2022-12-19T13:16:46.530Z,21.45
2022-12-19T13:19:25.805Z,22.42
2022-12-19T13:22:05.073Z,23.95
2022-12-19T13:24:50.768Z,22.50
2022-12-19T13:27:21.316Z,20.17
2022-12-19T13:29:57.585Z,22.08
2022-12-19T13:32:25.049Z,20.20
2022-12-19T13:35:06.264Z,21.75
2022-12-19T13:40:01.897Z,24.65
2022-12-19T13:41:01.289Z,24.55
2022-12-19T13:43:46.959Z,22.27
2022-12-19T13:46:40.286Z,23.88
2022-12-19T13:49:10.419Z,24.70
2022-12-19T13:51:47.922Z,22.27
2022-12-19T13:54:23.116Z,26.25
2022-12-19T13:56:52.095Z,18.55
2022-12-19T13:59:19.911Z,22.30
2022-12-19T14:01:47.287Z,23.45
2022-12-19T14:04:34.820Z,19.10
2022-12-19T14:07:04.927Z,21.08
2022-12-19T14:11:28.399Z,18.13
2022-12-19T14:13:45.861Z,21.02
2022-12-19T14:15:34.898Z,18.92
2022-12-19T14:18:43.096Z,18.60
2022-12-19T14:22:04.564Z,23.45
2022-12-19T14:24:18.200Z,22.00
2022-12-19T14:28:21.189Z,19.08
2022-12-19T14:30:27.605Z,20.15
2022-12-19T14:33:46.020Z,27.27
2022-12-19T14:36:10.367Z,22.50
2022-12-19T14:39:19.430Z,19.95
2022-12-19T14:41:08.012Z,24.27
2022-12-19T14:43:56.742Z,20.85
2022-12-19T14:53:51.488Z,25.73
2022-12-19T14:54:01.592Z,24.55
2022-12-19T14:54:37.066Z,22.50
2022-12-19T14:56:08.173Z,25.38
2022-12-19T14:58:52.515Z,27.20
2022-12-19T15:01:27.207Z,26.40
2022-12-19T15:04:51.738Z,26.95
2022-12-19T15:07:10.097Z,24.92
2022-12-19T15:11:03.466Z,29.83
2022-12-19T15:14:50.605Z,24.08
2022-12-19T15:16:01.628Z,24.55
2022-12-19T15:18:39.560Z,20.40
2022-12-19T15:21:08.537Z,27.77
2022-12-19T15:23:35.193Z,24.30
2022-12-19T15:26:06.220Z,29.13
2022-12-19T15:28:41.843Z,27.80
2022-12-19T15:31:28.814Z,28.02
2022-12-19T15:36:42.671Z,29.08
2022-12-19T15:39:09.377Z,24.65
2022-12-19T15:41:36.020Z,28.48
2022-12-19T15:44:31.396Z,25.60
2022-12-19T15:46:59.156Z,29.77
2022-12-19T15:49:26.294Z,27.05
2022-12-19T15:51:53.380Z,26.60
2022-12-19T15:57:09.378Z,30.08
2022-12-19T15:59:38.543Z,26.73
2022-12-19T16:02:18.214Z,28.75
2022-12-19T16:04:45.857Z,33.03
2022-12-19T16:07:21.799Z,29.75
2022-12-19T16:09:48.890Z,32.90
2022-12-19T16:12:21.089Z,34.22
2022-12-19T16:14:49.768Z,45.50
2022-12-19T16:17:20.191Z,35.25
2022-12-19T16:19:47.011Z,27.95
2022-12-19T16:22:22.647Z,31.17
2022-12-19T16:24:50.454Z,26.15
2022-12-19T16:27:35.741Z,25.92
2022-12-19T16:30:19.613Z,26.60
2022-12-19T16:32:47.032Z,32.53
2022-12-19T16:35:24.033Z,29.90
2022-12-19T16:38:01.219Z,32.70
2022-12-19T16:40:28.320Z,28.88
2022-12-19T16:43:15.861Z,25.42
2022-12-19T16:45:42.939Z,26.10
2022-12-19T16:48:21.639Z,27.52
2022-12-19T16:50:48.552Z,25.00
2022-12-19T16:53:15.861Z,22.65
2022-12-19T16:55:43.458Z,26.10
2022-12-19T16:58:28.492Z,22.05
2022-12-19T17:00:55.963Z,25.05
2022-12-19T17:03:30.415Z,22.52
2022-12-19T17:05:57.191Z,23.80
2022-12-19T17:08:24.204Z,24.00
2022-12-19T17:10:51.649Z,24.92
2022-12-19T17:13:18.490Z,25.60
2022-12-19T17:15:49.675Z,27.15
2022-12-19T17:18:31.758Z,29.15
2022-12-19T17:20:58.956Z,26.38
2022-12-19T17:23:26.659Z,25.45
2022-12-19T17:25:55.117Z,27.27
2022-12-19T17:28:22.048Z,25.58
2022-12-19T17:30:53.813Z,24.10
2022-12-19T17:33:30.041Z,25.55
2022-12-19T17:35:57.754Z,25.02
2022-12-19T17:38:25.277Z,29.60
2022-12-19T17:40:52.735Z,29.40
2022-12-19T17:43:20.003Z,30.55
2022-12-19T17:45:48.869Z,30.40
2022-12-19T17:48:32.111Z,27.95
2022-12-19T17:51:01.487Z,27.05
2022-12-19T17:53:30.335Z,25.52
2022-12-19T17:55:57.933Z,25.77
2022-12-19T17:58:30.285Z,27.98
2022-12-19T18:00:58.092Z,27.83
2022-12-19T18:03:27.125Z,29.10
2022-12-19T18:05:55.690Z,24.77
2022-12-19T18:08:28.087Z,31.77
2022-12-19T18:10:57.497Z,28.20
2022-12-19T18:13:25.382Z,26.33
2022-12-19T18:15:53.814Z,28.92
2022-12-19T18:18:23.308Z,26.17
2022-12-19T18:20:51.379Z,26.98
2022-12-19T18:23:21.145Z,22.50
2022-12-19T18:25:48.882Z,28.88
2022-12-19T18:28:17.706Z,30.88
2022-12-19T18:30:45.528Z,28.70
2022-12-19T18:33:18.881Z,33.47
2022-12-19T18:35:49.441Z,31.75
2022-12-19T18:38:21.973Z,30.83
2022-12-19T18:40:50.834Z,28.02
2022-12-19T18:43:19.193Z,28.88
2022-12-19T18:45:48.805Z,29.45
2022-12-19T18:48:33.440Z,30.30
2022-12-19T18:51:01.622Z,27.10
2022-12-19T18:53:35.817Z,29.02
2022-12-19T18:56:05.157Z,26.90
2022-12-19T18:58:33.003Z,24.25
2022-12-19T19:01:01.018Z,26.27
2022-12-19T19:03:49.428Z,26.40
2022-12-19T19:06:23.655Z,27.95
2022-12-19T19:08:52.459Z,27.38
2022-12-19T19:11:21.030Z,27.38
2022-12-19T19:13:48.727Z,27.42
2022-12-19T19:16:20.230Z,30.02
2022-12-19T19:18:54.222Z,29.35
2022-12-19T19:21:23.441Z,31.70
2022-12-19T19:23:56.842Z,30.00
2022-12-19T19:26:24.520Z,29.15
2022-12-19T19:28:52.726Z,30.00
2022-12-19T19:31:22.031Z,28.33
2022-12-19T19:34:20.030Z,29.27
2022-12-19T19:36:50.026Z,31.45
2022-12-19T19:39:20.296Z,31.88
2022-12-19T19:41:48.733Z,27.02
2022-12-19T19:44:17.162Z,26.80
2022-12-19T19:46:45.230Z,30.40
2022-12-19T19:49:12.883Z,28.77
2022-12-19T19:51:40.411Z,26.27
2022-12-19T19:54:07.180Z,30.42
2022-12-19T19:56:33.904Z,27.00
2022-12-19T19:59:00.832Z,26.38
2022-12-19T20:01:28.004Z,27.95
2022-12-19T20:03:54.949Z,25.73
2022-12-19T20:06:21.729Z,30.08
2022-12-19T20:08:49.328Z,28.30
2022-12-19T20:11:16.341Z,26.85
2022-12-19T20:13:43.098Z,24.17
2022-12-19T20:16:12.189Z,27.98
2022-12-19T20:18:41.447Z,28.13
2022-12-19T20:21:13.196Z,26.17
2022-12-19T20:23:41.423Z,26.98
2022-12-19T20:26:08.384Z,22.52
2022-12-19T20:28:35.093Z,25.17
2022-12-19T20:31:02.116Z,29.35
2022-12-19T20:33:29.234Z,27.90
2022-12-19T20:35:57.064Z,31.98
2022-12-19T20:38:24.137Z,30.60
2022-12-19T20:40:56.024Z,29.88
2022-12-19T20:43:23.988Z,29.67
2022-12-19T20:45:50.965Z,24.55
2022-12-19T20:48:18.541Z,26.55
2022-12-19T20:50:45.340Z,26.10
2022-12-19T20:53:12.052Z,27.38
2022-12-19T20:55:38.837Z,25.05
2022-12-19T20:58:05.557Z,26.83
2022-12-19T21:00:32.300Z,21.92
2022-12-19T21:03:27.120Z,27.77
2022-12-19T21:05:55.042Z,25.73
2022-12-19T21:08:22.584Z,25.67
2022-12-19T21:10:49.938Z,21.52
2022-12-19T21:13:17.572Z,23.85
2022-12-19T21:15:46.387Z,21.80
2022-12-19T21:18:13.626Z,24.20
2022-12-19T21:20:41.880Z,25.05
2022-12-19T21:23:09.357Z,26.08
2022-12-19T21:25:37.079Z,21.27
2022-12-19T21:28:04.572Z,22.45
2022-12-19T21:30:33.689Z,24.15
2022-12-19T21:33:01.098Z,31.90
2022-12-19T21:35:28.414Z,32.30
2022-12-19T21:37:57.317Z,29.75
2022-12-19T21:40:25.073Z,34.83
2022-12-19T21:42:52.391Z,30.17
2022-12-19T21:45:20.933Z,27.95
2022-12-19T21:47:49.268Z,25.25
2022-12-19T21:50:16.391Z,23.95
2022-12-19T21:52:43.983Z,23.52
2022-12-19T21:55:11.325Z,27.73
2022-12-19T21:57:42.439Z,25.83
2022-12-19T22:00:11.167Z,23.90
2022-12-19T22:02:38.276Z,24.83
2022-12-19T22:05:09.442Z,31.42
2022-12-19T22:07:37.172Z,42.45
2022-12-19T22:10:04.388Z,44.97
2022-12-19T22:12:31.209Z,52.40
2022-12-19T22:14:58.583Z,65.65
2022-12-19T22:17:25.313Z,32.20
2022-12-19T22:19:52.036Z,26.02
2022-12-19T22:22:18.710Z,28.50
2022-12-19T22:24:45.441Z,24.30
2022-12-19T22:27:12.125Z,25.30
2022-12-19T22:29:38.801Z,26.65
2022-12-19T22:32:05.799Z,28.40
2022-12-19T22:34:32.568Z,22.00
2022-12-19T22:36:59.422Z,27.55
2022-12-19T22:39:26.216Z,24.30
2022-12-19T22:41:52.924Z,25.40
2022-12-19T22:44:24.027Z,25.02
2022-12-19T22:46:51.451Z,22.48
2022-12-19T22:49:18.380Z,24.08
2022-12-19T22:51:46.140Z,22.25
2022-12-19T22:54:13.723Z,23.90
2022-12-19T22:56:40.850Z,25.88
2022-12-19T22:59:08.490Z,21.85
2022-12-19T23:01:38.057Z,24.85
2022-12-19T23:04:06.009Z,23.15
2022-12-19T23:06:34.123Z,20.52
2022-12-19T23:09:01.252Z,25.60
2022-12-19T23:11:34.270Z,25.63
2022-12-19T23:14:02.063Z,26.08
2022-12-19T23:16:28.913Z,30.58
2022-12-19T23:18:55.695Z,29.23
2022-12-19T23:21:23.778Z,26.50
2022-12-19T23:23:52.122Z,23.63
2022-12-19T23:26:40.244Z,23.40
2022-12-19T23:29:09.174Z,27.13
2022-12-19T23:31:36.040Z,21.83
2022-12-19T23:34:02.824Z,23.85
2022-12-19T23:39:16.346Z,23.00
2022-12-19T23:41:43.194Z,18.25
2022-12-19T23:44:10.633Z,20.48
2022-12-19T23:46:37.818Z,22.85
2022-12-19T23:49:04.681Z,21.30
2022-12-19T23:51:31.839Z,21.02
2022-12-19T23:53:58.556Z,21.58
2022-12-19T23:56:28.024Z,23.83
2022-12-19T23:58:55.396Z,24.70
